Time;durP1;ratioP1;P1;durP2;ratioP2;P2;SDS_P1;SDS_P2;PMS_P1;PMS_P2;Temp;Humidity;BMP_temperature;BMP_pressure;BME280_temperature;BME280_humidity;BME280_pressure;Samples;Min_cycle;Max_cycle;Signal;HPM_P1;HPM_P2
2023/07/09 00:00:14;;;;;;;7.27;3.40;;;13.20;1.00;;;;;;5053754;28;20229;-69
2023/07/09 00:03:01;;;;;;;4.50;2.70;;;13.20;1.00;;;;;;5053951;28;20661;-69
2023/07/09 00:05:50;;;;;;;7.17;2.87;;;13.10;1.00;;;;;;5053633;28;20194;-69
2023/07/09 00:08:37;;;;;;;4.33;3.03;;;13.10;1.00;;;;;;5053725;28;20229;-69
2023/07/09 00:11:24;;;;;;;5.47;3.00;;;13.10;1.00;;;;;;5053591;28;20680;-69
2023/07/09 00:14:11;;;;;;;3.57;2.70;;;13.10;1.00;;;;;;5053539;28;20240;-69
2023/07/09 00:16:58;;;;;;;5.03;3.10;;;13.10;1.00;;;;;;5053640;28;20206;-68
2023/07/09 00:19:46;;;;;;;5.57;2.40;;;13.00;1.00;;;;;;5053398;28;20251;-69
2023/07/09 00:22:34;;;;;;;4.43;2.90;;;13.00;1.00;;;;;;5053604;28;20200;-69
2023/07/09 00:25:21;;;;;;;5.30;2.90;;;13.00;1.00;;;;;;5053380;28;20293;-69
2023/07/09 00:28:13;;;;;;;4.13;2.70;;;13.00;1.00;;;;;;5053197;28;20203;-69
2023/07/09 00:31:00;;;;;;;4.83;2.70;;;13.00;1.00;;;;;;5053354;28;20234;-69
2023/07/09 00:33:47;;;;;;;5.33;2.73;;;13.00;1.00;;;;;;5053113;28;20333;-69
2023/07/09 00:36:34;;;;;;;7.23;2.87;;;13.00;1.00;;;;;;5053272;28;20684;-69
2023/07/09 00:39:23;;;;;;;5.07;2.90;;;12.90;1.00;;;;;;5052831;28;20301;-69
2023/07/09 00:42:14;;;;;;;4.33;2.90;;;12.90;1.00;;;;;;5052949;28;20208;-69
2023/07/09 00:45:04;;;;;;;4.63;2.90;;;12.80;1.00;;;;;;5052888;28;20205;-69
2023/07/09 00:47:53;;;;;;;5.73;2.90;;;12.80;1.00;;;;;;5069376;28;20212;-69
2023/07/09 00:50:42;;;;;;;4.30;3.10;;;12.90;1.00;;;;;;5072374;28;20228;-69
2023/07/09 00:53:30;;;;;;;3.13;2.60;;;12.90;1.00;;;;;;5072273;28;20227;-69
2023/07/09 00:56:25;;;;;;;5.20;2.83;;;12.90;1.00;;;;;;5072685;28;20202;-69
2023/07/09 00:59:15;;;;;;;4.07;2.70;;;12.80;1.00;;;;;;5072573;28;20232;-69
2023/07/09 01:02:02;;;;;;;8.07;2.70;;;12.80;1.00;;;;;;5072260;28;20193;-69
2023/07/09 01:04:49;;;;;;;5.90;2.93;;;12.80;1.00;;;;;;5073130;28;20192;-69
2023/07/09 01:07:36;;;;;;;5.67;3.33;;;12.80;1.00;;;;;;5072204;28;20206;-69
2023/07/09 01:10:24;;;;;;;3.63;2.53;;;12.80;1.00;;;;;;5072231;28;20742;-69
2023/07/09 01:13:13;;;;;;;8.70;3.13;;;12.70;1.00;;;;;;5072791;28;20201;-69
2023/07/09 01:16:00;;;;;;;4.23;2.93;;;12.70;1.00;;;;;;5071850;28;20600;-69
2023/07/09 01:18:47;;;;;;;5.47;3.00;;;12.70;1.00;;;;;;5072150;28;20196;-69
2023/07/09 01:21:36;;;;;;;5.17;3.07;;;12.70;1.00;;;;;;5072013;28;20193;-69
2023/07/09 01:25:01;;;;;;;4.13;2.90;;;12.70;1.00;;;;;;5072107;28;20193;-69
2023/07/09 01:27:48;;;;;;;4.47;2.83;;;12.70;1.00;;;;;;5071777;28;20190;-69
2023/07/09 01:30:37;;;;;;;7.33;2.80;;;12.60;1.00;;;;;;5071692;28;20350;-69
2023/07/09 01:33:24;;;;;;;3.87;2.90;;;12.60;1.00;;;;;;5071603;28;20193;-69
2023/07/09 01:36:13;;;;;;;3.50;2.70;;;12.60;1.00;;;;;;5072536;28;20236;-69
2023/07/09 01:39:02;;;;;;;4.47;3.20;;;12.60;1.00;;;;;;5071612;28;20226;-69
2023/07/09 01:41:50;;;;;;;5.10;3.10;;;12.60;1.00;;;;;;5071946;28;20616;-69
2023/07/09 01:44:38;;;;;;;5.63;3.20;;;12.50;1.00;;;;;;5071625;28;20335;-69
2023/07/09 01:47:25;;;;;;;5.53;3.27;;;12.50;1.00;;;;;;5058413;28;20197;-69
2023/07/09 01:50:13;;;;;;;5.13;2.80;;;12.50;1.00;;;;;;5051873;28;20706;-69
2023/07/09 01:53:00;;;;;;;3.80;3.13;;;12.50;1.00;;;;;;5051440;28;20209;-69
2023/07/09 01:55:48;;;;;;;6.93;3.43;;;12.50;1.00;;;;;;5052078;28;20204;-69
2023/07/09 01:58:36;;;;;;;3.67;3.23;;;12.40;29.20;;;;;;5052054;28;20208;-69
2023/07/09 02:01:25;;;;;;;6.23;3.50;;;12.40;97.90;;;;;;5055221;28;20201;-69
2023/07/09 02:04:12;;;;;;;6.03;3.63;;;12.40;96.20;;;;;;5056168;28;20684;-69
2023/07/09 02:07:00;;;;;;;6.93;3.50;;;12.30;99.90;;;;;;5056219;28;20233;-69
2023/07/09 02:09:47;;;;;;;9.63;4.17;;;12.30;99.90;;;;;;5055816;28;20205;-69
2023/07/09 02:12:36;;;;;;;10.87;4.20;;;12.30;99.90;;;;;;5056061;28;20567;-69
2023/07/09 02:15:23;;;;;;;7.00;3.83;;;12.30;99.90;;;;;;5055637;28;20331;-69
2023/07/09 02:18:10;;;;;;;8.17;4.17;;;12.30;99.90;;;;;;5055640;28;20198;-69
2023/07/09 02:20:57;;;;;;;10.60;4.70;;;12.30;99.90;;;;;;5055524;28;20658;-69
2023/07/09 02:23:44;;;;;;;12.10;5.13;;;12.30;1.00;;;;;;5055550;28;20197;-69
2023/07/09 02:26:31;;;;;;;11.10;5.10;;;12.30;99.90;;;;;;5055782;28;20206;-69
2023/07/09 02:29:20;;;;;;;8.50;5.50;;;12.30;99.90;;;;;;5055299;28;20255;-70
2023/07/09 02:32:08;;;;;;;10.00;5.20;;;12.30;99.90;;;;;;5055278;28;20227;-70
2023/07/09 02:34:56;;;;;;;10.17;4.90;;;12.30;99.90;;;;;;5055259;28;20205;-70
2023/07/09 02:37:43;;;;;;;7.87;4.70;;;12.30;99.90;;;;;;5055456;28;20193;-70
2023/07/09 02:40:30;;;;;;;7.77;4.97;;;12.30;99.90;;;;;;5055498;28;20197;-70
2023/07/09 02:43:17;;;;;;;7.43;4.80;;;12.30;99.90;;;;;;5055138;28;20200;-70
2023/07/09 02:46:06;;;;;;;11.10;4.90;;;12.30;99.90;;;;;;5057034;28;20695;-70
2023/07/09 02:48:53;;;;;;;8.03;4.93;;;12.40;99.90;;;;;;5074353;28;20257;-70
2023/07/09 02:51:40;;;;;;;11.87;5.17;;;12.40;1.00;;;;;;5075268;28;20208;-70
2023/07/09 02:54:28;;;;;;;10.33;4.90;;;12.40;99.90;;;;;;5074516;28;20207;-70
2023/07/09 02:57:15;;;;;;;9.83;5.40;;;12.40;1.00;;;;;;5074217;28;20196;-70
2023/07/09 03:00:05;;;;;;;10.53;5.20;;;12.50;99.90;;;;;;5074298;28;20204;-70
2023/07/09 03:02:53;;;;;;;8.93;5.37;;;12.50;1.00;;;;;;5074576;28;20667;-70
2023/07/09 03:05:41;;;;;;;12.50;5.57;;;12.60;1.00;;;;;;5074241;28;20205;-70
2023/07/09 03:08:28;;;;;;;13.23;5.07;;;12.60;1.00;;;;;;5075024;28;20206;-70
2023/07/09 03:11:15;;;;;;;15.97;5.23;;;12.60;1.00;;;;;;5073912;28;20217;-70
2023/07/09 03:14:03;;;;;;;10.93;5.43;;;12.60;1.00;;;;;;5074618;28;20222;-70
2023/07/09 03:16:50;;;;;;;9.47;5.47;;;12.60;1.00;;;;;;5074258;28;20573;-70
2023/07/09 03:19:39;;;;;;;8.63;5.57;;;12.70;1.00;;;;;;5074465;28;20197;-70
2023/07/09 03:22:26;;;;;;;11.40;5.30;;;12.70;1.00;;;;;;5074069;28;20571;-70
2023/07/09 03:25:13;;;;;;;11.40;5.40;;;12.80;1.00;;;;;;5074088;28;20231;-70
2023/07/09 03:28:00;;;;;;;9.90;5.70;;;12.90;1.00;;;;;;5074366;28;20197;-70
2023/07/09 03:30:48;;;;;;;12.97;5.20;;;13.00;1.00;;;;;;5074492;28;20225;-70
2023/07/09 03:33:35;;;;;;;7.80;5.17;;;13.00;1.00;;;;;;5074107;28;20848;-70
2023/07/09 03:36:24;;;;;;;9.87;5.57;;;13.10;1.00;;;;;;5074286;28;20210;-70
2023/07/09 03:39:11;;;;;;;8.80;5.23;;;13.20;1.00;;;;;;5073475;28;20696;-70
2023/07/09 03:41:58;;;;;;;11.90;6.03;;;13.30;1.00;;;;;;5074324;28;20195;-70
2023/07/09 03:44:45;;;;;;;11.77;5.70;;;13.30;1.00;;;;;;5074314;28;20273;-70
2023/07/09 03:47:33;;;;;;;11.90;6.10;;;13.40;1.00;;;;;;5059506;28;20198;-70
2023/07/09 03:50:20;;;;;;;9.30;6.00;;;13.50;1.00;;;;;;5053157;28;20255;-70
2023/07/09 03:53:08;;;;;;;9.77;5.63;;;13.60;1.00;;;;;;5053482;28;20218;-71
2023/07/09 03:55:56;;;;;;;9.30;6.00;;;13.70;1.00;;;;;;5054062;28;20249;-70
2023/07/09 03:58:43;;;;;;;9.13;5.93;;;13.80;1.00;;;;;;5053971;28;20684;-70
2023/07/09 04:01:30;;;;;;;12.10;5.80;;;13.80;1.00;;;;;;5053890;28;20210;-70
2023/07/09 04:04:20;;;;;;;13.30;5.70;;;13.90;1.00;;;;;;5053786;28;20213;-71
2023/07/09 04:07:07;;;;;;;10.70;6.30;;;14.00;1.00;;;;;;5053881;28;20197;-71
2023/07/09 04:09:55;;;;;;;10.33;6.00;;;14.10;1.00;;;;;;5053454;28;20205;-70
2023/07/09 04:12:43;;;;;;;13.23;6.73;;;14.30;99.90;;;;;;5053455;28;20230;-71
2023/07/09 04:15:30;;;;;;;11.87;6.30;;;14.40;99.90;;;;;;5053615;28;20200;-71
2023/07/09 04:18:17;;;;;;;9.60;6.13;;;14.50;99.90;;;;;;5053449;28;20203;-70
2023/07/09 04:21:04;;;;;;;10.23;5.73;;;14.70;99.90;;;;;;5053326;28;20200;-71
2023/07/09 04:23:52;;;;;;;11.60;5.90;;;14.80;1.00;;;;;;5052942;28;20239;-71
2023/07/09 04:26:40;;;;;;;11.17;5.97;;;14.90;1.00;;;;;;5053284;28;20203;-71
2023/07/09 04:29:27;;;;;;;9.73;6.03;;;15.00;1.00;;;;;;5053126;28;20204;-71
2023/07/09 04:32:15;;;;;;;8.80;6.17;;;15.10;99.90;;;;;;5053282;28;20256;-71
2023/07/09 04:35:05;;;;;;;11.13;6.50;;;15.30;99.90;;;;;;5053440;28;20269;-71
2023/07/09 04:37:52;;;;;;;11.40;5.80;;;15.50;99.90;;;;;;5053037;28;20283;-70
2023/07/09 04:40:39;;;;;;;14.67;5.83;;;15.60;99.90;;;;;;5053247;28;20650;-71
2023/07/09 04:43:28;;;;;;;8.83;5.77;;;15.90;1.00;;;;;;5052898;28;20200;-71
2023/07/09 04:46:15;;;;;;;11.47;5.80;;;16.20;1.00;;;;;;5056426;28;20224;-71
2023/07/09 04:49:02;;;;;;;12.97;6.57;;;16.40;99.90;;;;;;5072411;28;20236;-71
2023/07/09 04:51:49;;;;;;;10.33;5.80;;;16.70;99.90;;;;;;5072421;28;20244;-70
2023/07/09 04:54:37;;;;;;;10.60;6.00;;;17.00;94.00;;;;;;5072820;28;20285;-70
2023/07/09 04:57:24;;;;;;;11.20;5.73;;;17.20;1.00;;;;;;5072630;28;20235;-70
2023/07/09 05:00:14;;;;;;;14.13;5.50;;;17.40;1.00;;;;;;5072352;28;20198;-70
2023/07/09 05:03:01;;;;;;;11.80;6.30;;;17.60;8.00;;;;;;5072929;28;20223;-71
2023/07/09 05:05:48;;;;;;;7.67;5.17;;;17.70;1.00;;;;;;5072596;28;20200;-70
2023/07/09 05:08:35;;;;;;;12.13;5.97;;;17.90;1.00;;;;;;5072546;28;20196;-70
2023/07/09 05:11:22;;;;;;;12.57;5.47;;;18.00;99.90;;;;;;5072406;28;20220;-70
2023/07/09 05:14:10;;;;;;;9.70;5.30;;;18.20;99.90;;;;;;5071895;28;20330;-70
2023/07/09 05:16:58;;;;;;;10.13;5.90;;;18.30;97.30;;;;;;5072426;28;20323;-70
2023/07/09 05:19:46;;;;;;;11.53;5.63;;;18.50;99.90;;;;;;5071899;28;20204;-70
2023/07/09 05:22:33;;;;;;;8.60;5.80;;;18.50;99.90;;;;;;5072434;28;20226;-70
2023/07/09 05:25:20;;;;;;;9.47;5.40;;;18.60;99.90;;;;;;5071677;28;20195;-71
2023/07/09 05:28:07;;;;;;;12.73;5.60;;;18.70;99.90;;;;;;5071816;28;20231;-70
2023/07/09 05:30:54;;;;;;;7.43;5.33;;;18.80;99.90;;;;;;5071778;28;20204;-71
2023/07/09 05:33:43;;;;;;;13.30;5.37;;;18.90;99.90;;;;;;5071877;28;20209;-71
2023/07/09 05:36:30;;;;;;;7.90;5.23;;;19.00;99.90;;;;;;5075326;28;20194;-71
2023/07/09 05:39:17;;;;;;;8.53;5.33;;;19.10;99.90;;;;;;5075982;28;20222;-71
2023/07/09 05:42:05;;;;;;;9.87;5.40;;;19.30;99.90;;;;;;5076967;28;20253;-71
2023/07/09 05:44:52;;;;;;;13.27;5.87;;;19.30;99.90;;;;;;5076328;28;20292;-71
2023/07/09 05:47:39;;;;;;;8.40;5.73;;;19.50;99.90;;;;;;5060608;28;20212;-70
2023/07/09 05:50:28;;;;;;;9.87;5.87;;;19.60;99.90;;;;;;5056076;28;20228;-71
2023/07/09 05:53:15;;;;;;;10.60;5.50;;;19.60;99.90;;;;;;5056200;28;20703;-71
2023/07/09 05:56:03;;;;;;;10.60;5.50;;;19.70;99.90;;;;;;5056052;28;20205;-71
2023/07/09 05:58:50;;;;;;;8.17;5.30;;;19.90;99.90;;;;;;5056355;28;20302;-71
2023/07/09 06:01:37;;;;;;;8.83;5.60;;;19.90;99.90;;;;;;5055299;28;20205;-71
2023/07/09 06:04:25;;;;;;;11.13;5.87;;;20.10;99.90;;;;;;5056208;28;20327;-70
2023/07/09 06:07:13;;;;;;;12.00;5.80;;;20.00;99.90;;;;;;5056006;28;20200;-70
2023/07/09 06:10:00;;;;;;;16.53;5.70;;;20.00;99.90;;;;;;5056153;28;20197;-70
2023/07/09 06:12:48;;;;;;;10.87;5.63;;;20.10;99.90;;;;;;5055701;28;20260;-71
2023/07/09 06:15:35;;;;;;;14.10;6.30;;;20.20;99.90;;;;;;5055663;28;20204;-70
2023/07/09 06:18:23;;;;;;;10.23;6.07;;;20.30;99.90;;;;;;5056062;28;20209;-72
2023/07/09 06:21:11;;;;;;;12.27;5.70;;;20.40;99.90;;;;;;5055826;28;20189;-70
2023/07/09 06:24:00;;;;;;;17.20;5.63;;;20.50;99.90;;;;;;5055582;28;20569;-71
2023/07/09 06:26:47;;;;;;;11.80;5.90;;;20.70;99.90;;;;;;5055506;28;20275;-70
2023/07/09 06:29:34;;;;;;;13.60;5.97;;;20.80;99.90;;;;;;5055740;28;20200;-71
2023/07/09 06:32:21;;;;;;;11.67;5.70;;;20.80;99.90;;;;;;5055357;28;20584;-71
2023/07/09 06:35:09;;;;;;;13.47;5.60;;;21.00;99.90;;;;;;5055409;28;20233;-71
2023/07/09 06:37:56;;;;;;;9.57;5.73;;;21.20;99.90;;;;;;5055253;28;20231;-72
2023/07/09 06:40:45;;;;;;;10.83;5.50;;;21.40;99.90;;;;;;5055332;28;20197;-71
2023/07/09 06:43:32;;;;;;;8.53;5.37;;;21.70;99.90;;;;;;5055095;28;20200;-72
2023/07/09 06:46:20;;;;;;;12.33;5.13;;;21.70;99.90;;;;;;5058692;28;20272;-71
2023/07/09 06:49:07;;;;;;;10.57;5.23;;;21.70;99.90;;;;;;5074577;28;20232;-71
2023/07/09 06:51:54;;;;;;;9.33;5.13;;;21.90;99.90;;;;;;5074354;28;20209;-72
2023/07/09 06:54:41;;;;;;;10.77;5.73;;;22.20;99.90;;;;;;5074595;28;20200;-72
2023/07/09 06:57:30;;;;;;;9.77;5.27;;;22.30;99.90;;;;;;5074413;28;20232;-70
2023/07/09 07:00:17;;;;;;;14.90;5.70;;;22.30;99.90;;;;;;5074603;28;20197;-72
2023/07/09 07:03:05;;;;;;;11.80;5.50;;;22.40;99.90;;;;;;5074797;28;20197;-72
2023/07/09 07:05:54;;;;;;;8.13;4.47;;;22.60;99.90;;;;;;5074832;28;20197;-72
2023/07/09 07:08:41;;;;;;;11.70;4.97;;;22.80;99.90;;;;;;5074189;28;20201;-71
2023/07/09 07:11:30;;;;;;;11.47;4.60;;;22.90;99.90;;;;;;5073951;28;20204;-72
2023/07/09 07:14:18;;;;;;;6.70;4.43;;;23.20;99.90;;;;;;5074050;28;20197;-72
2023/07/09 07:17:06;;;;;;;7.60;4.50;;;23.40;99.90;;;;;;5075105;28;20228;-71
2023/07/09 07:19:53;;;;;;;7.37;4.00;;;23.50;99.90;;;;;;5074187;28;20223;-71
2023/07/09 07:22:40;;;;;;;10.33;4.43;;;23.60;99.90;;;;;;5073953;28;20573;-72
2023/07/09 07:25:27;;;;;;;7.57;4.00;;;23.70;99.90;;;;;;5074036;28;20200;-71
2023/07/09 07:28:15;;;;;;;9.47;5.30;;;23.90;99.90;;;;;;5073880;28;20204;-71
2023/07/09 07:31:05;;;;;;;10.00;4.33;;;24.00;99.90;;;;;;5073876;28;20197;-71
2023/07/09 07:33:52;;;;;;;6.20;4.33;;;24.00;99.90;;;;;;5073723;28;20225;-72
2023/07/09 07:36:39;;;;;;;12.13;3.87;;;24.20;99.90;;;;;;5074529;28;20228;-71
2023/07/09 07:39:26;;;;;;;7.32;4.15;;;24.40;99.90;;;;;;5073944;28;20217;-71
2023/07/09 07:42:13;;;;;;;5.47;3.78;;;24.70;99.90;;;;;;5073589;28;20606;-72
2023/07/09 07:45:01;;;;;;;7.82;4.10;;;25.00;99.90;;;;;;5073839;28;20204;-72
2023/07/09 07:47:51;;;;;;;7.65;3.78;;;25.20;99.90;;;;;;5057771;28;20255;-71
2023/07/09 07:50:38;;;;;;;6.35;3.80;;;25.30;99.90;;;;;;5054093;28;20298;-71
2023/07/09 07:53:25;;;;;;;6.97;3.97;;;25.40;99.90;;;;;;5053837;28;20209;-71
2023/07/09 07:56:12;;;;;;;6.05;4.03;;;25.50;99.90;;;;;;5054449;28;20201;-72
2023/07/09 07:59:00;;;;;;;8.10;3.92;;;25.70;99.90;;;;;;5053143;28;20205;-71
2023/07/09 08:01:48;;;;;;;7.72;3.72;;;25.70;99.90;;;;;;5053448;28;20205;-73
2023/07/09 08:04:37;;;;;;;6.97;3.35;;;25.80;99.90;;;;;;5053733;28;20204;-72
2023/07/09 08:07:24;;;;;;;6.18;4.03;;;25.80;99.90;;;;;;5053527;28;20204;-74
2023/07/09 08:10:12;;;;;;;7.13;3.83;;;25.80;99.90;;;;;;5053875;28;20229;-74
2023/07/09 08:13:00;;;;;;;8.13;3.75;;;25.70;99.90;;;;;;5053666;28;20699;-71
2023/07/09 08:15:47;;;;;;;5.57;3.67;;;25.70;99.90;;;;;;5053710;28;20197;-71
2023/07/09 08:18:34;;;;;;;5.57;3.70;;;26.00;99.90;;;;;;5053721;28;20205;-71
2023/07/09 08:21:23;;;;;;;5.40;3.30;;;26.20;99.90;;;;;;5053567;28;20273;-72
2023/07/09 08:24:10;;;;;;;5.60;3.72;;;26.50;1.00;;;;;;5053590;28;20205;-72
2023/07/09 08:27:00;;;;;;;7.30;3.38;;;26.60;99.90;;;;;;5053212;28;20216;-71
2023/07/09 08:29:47;;;;;;;5.03;3.47;;;26.60;99.90;;;;;;5053291;28;20573;-71
2023/07/09 08:32:34;;;;;;;4.53;3.58;;;26.90;1.00;;;;;;5053343;28;20213;-72
2023/07/09 08:35:21;;;;;;;8.63;3.47;;;27.10;1.00;;;;;;5053006;28;20201;-71
2023/07/09 08:38:10;;;;;;;4.78;3.63;;;27.10;1.00;;;;;;5053087;28;20225;-72
2023/07/09 08:40:59;;;;;;;5.63;3.53;;;27.10;1.00;;;;;;5053307;28;20201;-71
2023/07/09 08:43:52;;;;;;;6.28;3.55;;;27.00;99.90;;;;;;5053000;28;20251;-71
2023/07/09 08:46:52;;;;;;;5.22;3.30;;;26.90;1.00;;;;;;5059528;28;20192;-71
2023/07/09 08:49:42;;;;;;;6.47;3.35;;;26.70;1.00;;;;;;5072136;28;20251;-71
2023/07/09 08:52:31;;;;;;;5.70;3.28;;;26.80;1.00;;;;;;5071138;28;20223;-71
2023/07/09 08:55:21;;;;;;;4.95;3.35;;;26.80;1.00;;;;;;5072772;28;20280;-70
2023/07/09 08:58:21;;;;;;;4.70;3.47;;;26.30;6.70;;;;;;5072199;28;20197;-71
2023/07/09 09:01:15;;;;;;;5.88;3.10;;;26.60;1.00;;;;;;5072391;28;20208;-72
2023/07/09 09:04:04;;;;;;;6.70;3.40;;;26.90;94.30;;;;;;5072291;28;20197;-72
2023/07/09 09:06:53;;;;;;;5.38;3.35;;;26.80;1.00;;;;;;5072323;28;20204;-71
2023/07/09 09:09:42;;;;;;;7.10;4.00;;;26.80;1.00;;;;;;5071761;28;20204;-71
2023/07/09 09:12:33;;;;;;;7.38;3.70;;;27.10;96.20;;;;;;5071852;28;20252;-71
2023/07/09 09:15:20;;;;;;;6.03;3.50;;;27.20;82.10;;;;;;5072074;28;20737;-71
2023/07/09 09:18:25;;;;;;;6.90;3.63;;;27.60;99.90;;;;;;5071929;28;20970;-71
2023/07/09 09:21:16;;;;;;;5.03;3.60;;;27.80;1.00;;;;;;5071908;28;20200;-71
2023/07/09 09:24:14;;;;;;;7.55;3.40;;;27.70;8.20;;;;;;5071892;28;20199;-71
2023/07/09 09:27:01;;;;;;;5.28;3.42;;;28.00;92.70;;;;;;5072419;28;20197;-70
2023/07/09 09:29:50;;;;;;;5.28;3.42;;;27.80;1.00;;;;;;5072236;28;20200;-73
2023/07/09 09:32:44;;;;;;;6.25;3.33;;;28.00;1.00;;;;;;5071696;28;20223;-71
2023/07/09 09:35:32;;;;;;;5.97;3.28;;;27.80;1.00;;;;;;5072012;28;20583;-71
2023/07/09 09:38:21;;;;;;;4.60;3.53;;;27.80;1.00;;;;;;5071619;28;20223;-72
2023/07/09 09:41:13;;;;;;;9.88;3.22;;;28.00;1.00;;;;;;5071764;28;20212;-71
2023/07/09 09:44:00;;;;;;;7.25;3.70;;;28.10;66.40;;;;;;5072257;28;20232;-76
2023/07/09 09:46:50;;;;;;;4.47;3.80;;;28.20;1.00;;;;;;5063685;28;20572;-76
2023/07/09 09:49:40;;;;;;;5.57;3.47;;;28.50;1.00;;;;;;5052187;28;20239;-76
2023/07/09 09:52:30;;;;;;;5.60;3.35;;;28.50;1.00;;;;;;5052027;28;20203;-76
2023/07/09 09:55:18;;;;;;;5.53;3.67;;;28.70;1.00;;;;;;5052024;28;20194;-76
2023/07/09 09:58:13;;;;;;;6.90;4.03;;;28.80;99.90;;;;;;5052106;28;20197;-71
2023/07/09 10:01:00;;;;;;;5.22;3.63;;;28.50;1.00;;;;;;5052325;28;20602;-70
2023/07/09 10:03:53;;;;;;;4.50;3.50;;;28.20;1.00;;;;;;5052070;28;20205;-72
2023/07/09 10:06:41;;;;;;;5.80;3.50;;;27.80;99.90;;;;;;5052544;28;20206;-71
2023/07/09 10:09:34;;;;;;;6.95;3.70;;;27.70;1.00;;;;;;5051961;28;20280;-72
2023/07/09 10:12:36;;;;;;;7.80;3.88;;;28.40;1.00;;;;;;5051823;28;20201;-75
2023/07/09 10:15:31;;;;;;;10.15;4.00;;;28.90;99.90;;;;;;5051865;28;20263;-71
2023/07/09 10:18:27;;;;;;;5.40;3.90;;;28.70;1.00;;;;;;5051968;28;20205;-70
2023/07/09 10:21:18;;;;;;;6.47;4.13;;;29.10;1.00;;;;;;5053100;28;20193;-71
2023/07/09 10:24:15;;;;;;;6.20;3.63;;;29.00;99.90;;;;;;5055933;28;20197;-71
2023/07/09 10:27:05;;;;;;;7.88;3.65;;;29.10;1.00;;;;;;5055511;28;20209;-71
2023/07/09 10:30:15;;;;;;;6.60;3.45;;;28.30;1.00;;;;;;5055727;28;20201;-72
2023/07/09 10:33:08;;;;;;;6.55;3.70;;;28.40;1.00;;;;;;5055416;28;20217;-71
2023/07/09 10:35:58;;;;;;;4.95;3.63;;;29.00;1.00;;;;;;5055402;28;20212;-72
2023/07/09 10:38:51;;;;;;;5.10;3.55;;;29.20;1.00;;;;;;5055814;28;20257;-71
2023/07/09 10:41:38;;;;;;;8.45;3.33;;;29.10;1.00;;;;;;5055450;28;20640;-72
2023/07/09 10:44:26;;;;;;;4.93;3.60;;;29.30;1.00;;;;;;5055236;28;20200;-72
2023/07/09 10:47:17;;;;;;;6.20;3.60;;;29.60;1.00;;;;;;5066909;28;20193;-70
2023/07/09 10:50:06;;;;;;;7.18;3.60;;;29.70;64.10;;;;;;5074490;28;20289;-71
2023/07/09 10:52:54;;;;;;;8.60;3.80;;;29.90;1.00;;;;;;5073108;28;20311;-72
2023/07/09 10:55:45;;;;;;;7.45;3.28;;;30.50;1.00;;;;;;5075273;28;20737;-71
2023/07/09 10:58:36;;;;;;;5.95;3.40;;;30.00;1.00;;;;;;5074763;28;20200;-72
2023/07/09 11:01:30;;;;;;;5.68;3.08;;;30.30;1.00;;;;;;5073157;28;20193;-72
2023/07/09 11:04:22;;;;;;;5.55;3.38;;;30.20;99.90;;;;;;5074334;28;20199;-72
2023/07/09 11:07:12;;;;;;;4.20;3.35;;;29.70;1.00;;;;;;5074370;28;20193;-71
2023/07/09 11:09:59;;;;;;;4.75;3.78;;;29.60;99.90;;;;;;5074405;28;20197;-70
2023/07/09 11:12:54;;;;;;;5.25;3.30;;;29.80;1.00;;;;;;5074564;28;20667;-71
2023/07/09 11:15:43;;;;;;;3.90;3.30;;;29.90;99.90;;;;;;5074077;28;20196;-71
2023/07/09 11:18:31;;;;;;;6.03;3.88;;;29.60;47.20;;;;;;5073981;28;20204;-71
2023/07/09 11:21:19;;;;;;;5.15;3.60;;;29.90;99.90;;;;;;5074372;28;20207;-70
2023/07/09 11:24:07;;;;;;;5.20;3.78;;;30.50;99.90;;;;;;5074360;28;20201;-70
2023/07/09 11:26:54;;;;;;;4.85;3.63;;;29.90;99.90;;;;;;5074445;28;20663;-70
2023/07/09 11:29:47;;;;;;;6.05;3.22;;;29.40;99.90;;;;;;5073977;28;20200;-71
2023/07/09 11:32:35;;;;;;;4.30;3.58;;;29.40;18.30;;;;;;5073849;28;20196;-71
2023/07/09 11:35:23;;;;;;;6.10;3.35;;;29.50;99.90;;;;;;5073673;28;20193;-71
2023/07/09 11:38:16;;;;;;;4.75;3.40;;;29.90;19.30;;;;;;5073515;28;20219;-72
2023/07/09 11:41:04;;;;;;;5.57;3.50;;;30.30;99.90;;;;;;5073860;28;20204;-72
2023/07/09 11:43:51;;;;;;;6.30;3.60;;;30.80;98.20;;;;;;5073890;28;20565;-71
2023/07/09 11:46:44;;;;;;;6.55;3.75;;;30.00;99.90;;;;;;5067548;28;20220;-70
2023/07/09 11:49:35;;;;;;;6.78;3.70;;;28.90;1.00;;;;;;5054057;28;20236;-71
2023/07/09 11:52:25;;;;;;;5.47;3.40;;;29.00;99.90;;;;;;5054213;28;20202;-71
2023/07/09 11:55:26;;;;;;;7.93;3.90;;;29.80;99.90;;;;;;5054182;28;20194;-70
2023/07/09 11:58:16;;;;;;;6.03;3.30;;;30.80;99.90;;;;;;5053837;28;20572;-70
2023/07/09 12:01:03;;;;;;;5.68;3.70;;;30.70;99.90;;;;;;5054066;28;20194;-73
2023/07/09 12:03:52;;;;;;;7.38;3.30;;;31.30;1.00;;;;;;5053978;28;20193;-71
2023/07/09 12:06:39;;;;;;;6.95;3.40;;;31.00;99.90;;;;;;5053916;28;20660;-71
2023/07/09 12:09:31;;;;;;;6.03;3.58;;;30.70;1.00;;;;;;5053620;28;20691;-70
2023/07/09 12:12:22;;;;;;;3.78;3.38;;;29.70;99.90;;;;;;5053594;28;20193;-70
2023/07/09 12:15:15;;;;;;;8.50;3.72;;;29.10;1.00;;;;;;5053512;28;20224;-70
2023/07/09 12:18:04;;;;;;;7.40;3.67;;;29.70;99.90;;;;;;5053716;28;20208;-70
2023/07/09 12:20:53;;;;;;;5.15;3.55;;;29.70;1.00;;;;;;5053831;28;20205;-70
2023/07/09 12:23:41;;;;;;;4.72;3.30;;;29.70;1.00;;;;;;5053871;28;20193;-71
2023/07/09 12:26:31;;;;;;;5.43;3.42;;;30.80;1.00;;;;;;5053588;28;20611;-71
2023/07/09 12:29:18;;;;;;;4.13;3.42;;;30.50;99.90;;;;;;5052756;28;20201;-72
2023/07/09 12:32:12;;;;;;;6.80;3.78;;;30.60;1.00;;;;;;5053486;28;20204;-70
2023/07/09 12:34:59;;;;;;;9.82;3.65;;;30.00;99.90;;;;;;5053285;28;20300;-73
2023/07/09 12:37:48;;;;;;;4.80;3.10;;;30.30;99.90;;;;;;5053317;28;20660;-71
2023/07/09 12:40:35;;;;;;;5.10;3.60;;;30.80;1.00;;;;;;5053113;28;20251;-72
2023/07/09 12:43:25;;;;;;;3.70;3.20;;;30.00;1.00;;;;;;5052778;28;20201;-69
2023/07/09 12:46:13;;;;;;;8.48;3.97;;;30.30;64.50;;;;;;5056185;28;20268;-69
2023/07/09 12:49:00;;;;;;;8.77;3.70;;;30.60;99.90;;;;;;5072823;28;20281;-74
2023/07/09 12:51:47;;;;;;;6.00;3.65;;;30.60;99.90;;;;;;5072400;28;20204;-69
2023/07/09 12:54:35;;;;;;;3.95;3.40;;;30.50;99.90;;;;;;5072894;28;20208;-69
2023/07/09 12:57:23;;;;;;;4.63;3.35;;;30.00;1.00;;;;;;5072624;28;20201;-73
2023/07/09 13:00:15;;;;;;;4.10;2.80;;;30.50;29.10;;;;;;5072214;28;20203;-74
2023/07/09 13:03:03;;;;;;;5.07;3.10;;;30.60;37.40;;;;;;5072770;28;20243;-72
2023/07/09 13:05:54;;;;;;;6.13;3.10;;;30.60;17.50;;;;;;5072105;28;20207;-69
2023/07/09 13:08:43;;;;;;;5.07;3.38;;;30.40;1.00;;;;;;5072404;28;20208;-74
2023/07/09 13:11:36;;;;;;;4.78;3.20;;;30.10;1.00;;;;;;5071897;28;20253;-74
2023/07/09 13:14:26;;;;;;;5.90;3.58;;;30.80;1.00;;;;;;5072242;28;20221;-74
2023/07/09 13:17:14;;;;;;;6.70;3.22;;;31.20;22.30;;;;;;5072800;28;20222;-74
2023/07/09 13:20:01;;;;;;;5.07;3.20;;;31.50;1.00;;;;;;5071912;28;20239;-71
2023/07/09 13:22:48;;;;;;;3.90;3.45;;;31.40;1.00;;;;;;5072444;28;20277;-69
2023/07/09 13:25:35;;;;;;;7.22;3.50;;;30.80;99.90;;;;;;5072733;28;20566;-70
2023/07/09 13:28:26;;;;;;;5.13;3.33;;;30.60;61.80;;;;;;5071760;28;20277;-70
2023/07/09 13:31:15;;;;;;;5.03;3.40;;;30.40;99.90;;;;;;5072025;28;20245;-69
2023/07/09 13:34:02;;;;;;;3.72;3.35;;;30.00;99.90;;;;;;5071667;28;20212;-70
2023/07/09 13:36:49;;;;;;;6.50;3.72;;;29.80;1.00;;;;;;5072616;28;20196;-69
2023/07/09 13:39:37;;;;;;;5.03;3.70;;;29.80;99.90;;;;;;5071618;28;20223;-69
2023/07/09 13:42:25;;;;;;;6.07;3.70;;;30.00;1.00;;;;;;5071978;28;20655;-70
2023/07/09 13:45:22;;;;;;;5.65;3.78;;;30.20;99.90;;;;;;5071679;28;20200;-74
2023/07/09 13:48:14;;;;;;;4.88;3.53;;;30.70;99.90;;;;;;5052209;28;20197;-70
2023/07/09 13:51:01;;;;;;;7.97;3.60;;;30.40;1.00;;;;;;5052301;28;20667;-70
2023/07/09 13:53:49;;;;;;;4.15;3.50;;;30.40;99.90;;;;;;5052061;28;20212;-71
2023/07/09 13:56:36;;;;;;;4.45;3.88;;;30.80;99.90;;;;;;5054471;28;20205;-69
2023/07/09 13:59:24;;;;;;;4.88;3.38;;;31.00;99.90;;;;;;5056015;28;20208;-69
2023/07/09 14:02:23;;;;;;;5.70;3.50;;;31.00;14.60;;;;;;5056668;28;20201;-70
2023/07/09 14:05:12;;;;;;;5.13;3.97;;;31.20;1.00;;;;;;5055984;28;20267;-69
2023/07/09 14:08:00;;;;;;;5.10;3.78;;;30.80;1.00;;;;;;5056257;28;20573;-69
2023/07/09 14:10:47;;;;;;;6.82;3.33;;;30.20;1.00;;;;;;5056182;28;20668;-70
2023/07/09 14:13:34;;;;;;;4.82;3.33;;;30.90;1.00;;;;;;5055704;28;20270;-70
2023/07/09 14:16:21;;;;;;;7.05;3.45;;;30.70;99.90;;;;;;5055799;28;20660;-70
2023/07/09 14:19:13;;;;;;;5.93;3.50;;;30.50;99.90;;;;;;5055700;28;20205;-70
2023/07/09 14:22:00;;;;;;;3.95;3.28;;;30.40;1.00;;;;;;5055969;28;20197;-70
2023/07/09 14:24:47;;;;;;;5.57;3.60;;;31.00;99.90;;;;;;5055672;28;20189;-69
2023/07/09 14:27:34;;;;;;;5.25;3.50;;;31.50;1.00;;;;;;5055491;28;20197;-71
2023/07/09 14:30:22;;;;;;;6.70;3.58;;;31.90;1.00;;;;;;5055869;28;20212;-73
2023/07/09 14:33:12;;;;;;;7.28;3.50;;;32.00;1.00;;;;;;5055737;28;20602;-70
2023/07/09 14:36:01;;;;;;;7.95;4.32;;;31.50;99.90;;;;;;5055482;28;20198;-74
2023/07/09 14:38:48;;;;;;;6.82;3.92;;;31.10;99.90;;;;;;5054629;28;20782;-74
2023/07/09 14:41:35;;;;;;;4.07;3.47;;;30.90;1.00;;;;;;5055236;28;20212;-74